createdAt,value
2023-01-10T00:01:57.215Z,1.88
2023-01-10T00:04:26.515Z,2.03
2023-01-10T00:06:53.432Z,1.90
2023-01-10T00:09:19.976Z,1.75
2023-01-10T00:12:05.379Z,2.30
2023-01-10T00:14:35.138Z,2.17
2023-01-10T00:17:04.805Z,1.75
2023-01-10T00:19:32.046Z,1.77
2023-01-10T00:22:02.689Z,1.63
2023-01-10T00:24:29.324Z,2.35
2023-01-10T00:26:55.790Z,2.20
2023-01-10T00:29:26.000Z,2.65
2023-01-10T00:31:52.438Z,2.60
2023-01-10T00:34:19.139Z,2.83
2023-01-10T00:36:47.847Z,3.10
2023-01-10T00:39:20.206Z,2.33
2023-01-10T00:42:05.661Z,3.45
2023-01-10T00:44:32.137Z,4.45
2023-01-10T00:46:58.535Z,3.13
2023-01-10T00:49:24.826Z,3.42
2023-01-10T00:51:51.249Z,4.32
2023-01-10T00:54:17.773Z,4.28
2023-01-10T00:56:44.234Z,4.15
2023-01-10T00:59:10.698Z,4.03
2023-01-10T01:01:37.207Z,4.25
2023-01-10T01:04:03.815Z,4.60
2023-01-10T01:06:30.347Z,5.15
2023-01-10T01:08:56.778Z,4.35
2023-01-10T01:11:23.135Z,3.95
2023-01-10T01:13:49.550Z,5.03
2023-01-10T01:16:17.122Z,4.40
2023-01-10T01:18:43.584Z,4.72
2023-01-10T01:21:10.056Z,4.35
2023-01-10T01:23:36.747Z,4.25
2023-01-10T01:26:03.395Z,4.13
2023-01-10T01:28:29.816Z,5.10
2023-01-10T01:30:56.244Z,4.22
2023-01-10T01:33:22.842Z,4.35
2023-01-10T01:35:50.600Z,4.40
2023-01-10T01:38:17.882Z,4.20
2023-01-10T01:40:44.914Z,4.60
2023-01-10T01:43:29.117Z,4.90
2023-01-10T01:46:01.058Z,4.13
2023-01-10T01:48:41.301Z,4.43
2023-01-10T01:51:16.257Z,4.43
2023-01-10T01:53:54.836Z,3.85
2023-01-10T01:56:25.532Z,4.25
2023-01-10T01:59:14.104Z,4.35
2023-01-10T02:01:42.787Z,3.30
2023-01-10T02:04:16.950Z,3.58
2023-01-10T02:06:46.043Z,3.53
2023-01-10T02:09:22.060Z,3.42
2023-01-10T02:11:49.021Z,3.75
2023-01-10T02:14:15.644Z,4.22
2023-01-10T02:16:42.278Z,4.13
2023-01-10T02:19:23.894Z,3.65
2023-01-10T02:21:59.393Z,3.63
2023-01-10T02:24:52.159Z,4.88
2023-01-10T02:27:29.109Z,3.83
2023-01-10T02:30:13.885Z,4.13
2023-01-10T02:33:05.315Z,3.42
2023-01-10T02:35:54.988Z,3.50
2023-01-10T02:38:43.092Z,3.85
2023-01-10T02:41:52.700Z,3.38
2023-01-10T02:44:28.810Z,3.35
2023-01-10T02:46:56.678Z,3.25
2023-01-10T02:49:23.045Z,3.72
2023-01-10T02:51:49.399Z,3.35
2023-01-10T02:54:24.230Z,3.70
2023-01-10T02:57:24.735Z,3.88
2023-01-10T03:00:00.503Z,3.58
2023-01-10T03:02:48.241Z,3.25
2023-01-10T03:05:45.776Z,3.65
2023-01-10T03:08:30.905Z,3.75
2023-01-10T03:10:57.262Z,3.35
2023-01-10T03:13:50.081Z,3.50
2023-01-10T03:16:19.486Z,3.88
2023-01-10T03:18:51.573Z,3.60
2023-01-10T03:21:20.219Z,4.03
2023-01-10T03:23:50.646Z,4.15
2023-01-10T03:26:26.903Z,3.90
2023-01-10T03:29:01.094Z,3.80
2023-01-10T03:31:45.813Z,4.78
2023-01-10T03:34:12.959Z,4.45
2023-01-10T03:36:56.606Z,3.70
2023-01-10T03:39:41.162Z,3.17
2023-01-10T03:42:13.582Z,3.78
2023-01-10T03:45:06.522Z,4.00
2023-01-10T03:47:41.474Z,4.65
2023-01-10T03:50:17.335Z,3.75
2023-01-10T03:52:45.417Z,3.53
2023-01-10T03:55:14.505Z,4.10
2023-01-10T03:57:45.589Z,4.78
2023-01-10T04:00:13.770Z,4.57
2023-01-10T04:02:40.187Z,4.38
2023-01-10T04:05:07.800Z,4.25
2023-01-10T04:07:34.663Z,4.85
2023-01-10T04:10:01.119Z,4.28
2023-01-10T04:12:27.613Z,4.25
2023-01-10T04:14:54.067Z,4.30
2023-01-10T04:17:20.627Z,4.45
2023-01-10T04:19:46.954Z,4.50
2023-01-10T04:22:13.355Z,4.68
2023-01-10T04:24:40.250Z,4.60
2023-01-10T04:27:07.036Z,4.80
2023-01-10T04:29:33.381Z,4.78
2023-01-10T04:32:00.868Z,5.03
2023-01-10T04:34:27.185Z,4.63
2023-01-10T04:36:53.601Z,4.75
2023-01-10T04:39:19.944Z,5.47
2023-01-10T04:41:46.297Z,5.18
2023-01-10T04:44:12.844Z,4.78
2023-01-10T04:46:41.983Z,4.43
2023-01-10T04:49:10.007Z,5.07
2023-01-10T04:51:36.436Z,5.18
2023-01-10T04:54:03.013Z,5.13
2023-01-10T04:56:29.495Z,4.22
2023-01-10T04:58:56.279Z,4.43
2023-01-10T05:01:25.112Z,4.72
2023-01-10T05:03:53.668Z,4.72
2023-01-10T05:06:21.458Z,4.55
2023-01-10T05:08:48.027Z,4.30
2023-01-10T05:11:14.461Z,4.80
2023-01-10T05:13:41.458Z,4.40
2023-01-10T05:16:08.283Z,4.18
2023-01-10T05:18:34.859Z,4.90
2023-01-10T05:21:09.685Z,4.50
2023-01-10T05:23:36.962Z,4.18
2023-01-10T05:26:23.214Z,4.45
2023-01-10T05:28:49.706Z,4.57
2023-01-10T05:31:18.626Z,4.35
2023-01-10T05:33:51.446Z,5.05
2023-01-10T05:36:18.945Z,4.20
2023-01-10T05:38:45.662Z,4.70
2023-01-10T05:41:12.100Z,3.85
2023-01-10T05:43:38.474Z,4.00
2023-01-10T05:46:04.939Z,4.90
2023-01-10T05:48:31.340Z,3.90
2023-01-10T05:50:57.724Z,4.65
2023-01-10T05:53:24.174Z,4.45
2023-01-10T05:55:58.393Z,4.75
2023-01-10T05:58:25.235Z,4.30
2023-01-10T06:00:52.256Z,4.03
2023-01-10T06:03:19.163Z,3.38
2023-01-10T06:05:47.220Z,4.28
2023-01-10T06:08:15.050Z,3.65
2023-01-10T06:10:42.246Z,4.63
2023-01-10T06:13:09.729Z,4.78
2023-01-10T06:15:36.735Z,4.63
2023-01-10T06:18:03.279Z,4.68
2023-01-10T06:20:29.748Z,4.47
2023-01-10T06:22:56.195Z,4.90
2023-01-10T06:25:22.634Z,5.97
2023-01-10T06:27:48.999Z,5.43
2023-01-10T06:30:15.683Z,5.03
2023-01-10T06:35:08.924Z,5.20
2023-01-10T06:37:35.492Z,5.05
2023-01-10T06:40:02.548Z,5.22
2023-01-10T06:42:29.142Z,5.50
2023-01-10T06:44:55.689Z,4.95
2023-01-10T06:47:22.249Z,5.75
2023-01-10T06:49:48.786Z,6.00
2023-01-10T06:52:15.333Z,5.78
2023-01-10T06:54:41.875Z,6.85
2023-01-10T06:57:08.940Z,5.88
2023-01-10T06:59:35.574Z,7.10
2023-01-10T07:02:02.198Z,6.15
2023-01-10T07:04:28.782Z,7.30
2023-01-10T07:06:55.297Z,6.40
2023-01-10T07:09:21.749Z,6.82
2023-01-10T07:11:48.267Z,7.32
2023-01-10T07:14:14.698Z,7.18
2023-01-10T07:16:41.206Z,6.72
2023-01-10T07:19:07.726Z,6.65
2023-01-10T07:21:34.226Z,7.32
2023-01-10T07:24:02.654Z,6.90
2023-01-10T07:26:30.071Z,7.45
2023-01-10T07:28:56.930Z,7.05
2023-01-10T07:31:24.443Z,7.53
2023-01-10T07:33:51.970Z,7.25
2023-01-10T07:36:19.155Z,6.80
2023-01-10T07:38:45.705Z,8.15
2023-01-10T07:41:12.510Z,6.75
2023-01-10T07:43:39.072Z,8.18
2023-01-10T07:46:09.434Z,8.20
2023-01-10T07:48:36.868Z,7.72
2023-01-10T07:51:03.692Z,7.70
2023-01-10T07:53:30.179Z,7.28
2023-01-10T07:56:01.348Z,7.90
2023-01-10T07:58:29.099Z,7.68
2023-01-10T08:01:00.505Z,8.75
2023-01-10T08:03:27.753Z,8.15
2023-01-10T08:05:59.391Z,9.00
2023-01-10T08:08:26.143Z,7.45
2023-01-10T08:10:52.663Z,8.52
2023-01-10T08:13:19.495Z,7.60
2023-01-10T08:15:47.417Z,7.97
2023-01-10T08:18:14.166Z,7.68
2023-01-10T08:20:40.992Z,8.10
2023-01-10T08:23:07.560Z,7.57
2023-01-10T08:25:34.117Z,7.70
2023-01-10T08:28:00.765Z,8.13
2023-01-10T08:30:27.224Z,8.13
2023-01-10T08:32:53.667Z,7.80
2023-01-10T08:35:20.442Z,8.18
2023-01-10T08:37:47.168Z,7.75
2023-01-10T08:40:13.796Z,8.32
2023-01-10T08:42:40.402Z,7.45
2023-01-10T08:45:07.470Z,8.38
2023-01-10T08:47:37.501Z,8.00
2023-01-10T08:50:07.785Z,8.68
2023-01-10T08:52:34.963Z,8.60
2023-01-10T08:55:01.462Z,7.88
2023-01-10T08:57:27.946Z,9.05
2023-01-10T08:59:54.383Z,9.30
2023-01-10T09:02:20.943Z,7.68
2023-01-10T09:04:47.530Z,8.82
2023-01-10T09:07:14.100Z,8.30
2023-01-10T09:09:40.590Z,7.30
2023-01-10T09:12:27.094Z,8.65
2023-01-10T09:14:53.595Z,8.20
2023-01-10T09:17:20.100Z,8.77
2023-01-10T09:19:46.616Z,8.75
2023-01-10T09:22:13.149Z,8.43
2023-01-10T09:24:40.037Z,7.72
2023-01-10T09:27:06.591Z,7.95
2023-01-10T09:29:33.130Z,9.27
2023-01-10T09:31:59.656Z,7.90
2023-01-10T09:34:26.397Z,7.60
2023-01-10T09:36:54.013Z,7.75
2023-01-10T09:39:21.595Z,7.93
2023-01-10T09:42:19.080Z,7.95
2023-01-10T09:45:24.603Z,7.10
2023-01-10T09:48:08.115Z,6.65
2023-01-10T09:50:46.437Z,7.93
2023-01-10T09:53:18.093Z,6.75
2023-01-10T09:55:49.924Z,8.32
2023-01-10T09:58:19.218Z,7.50
2023-01-10T10:00:54.787Z,7.07
2023-01-10T10:03:31.531Z,6.32
2023-01-10T10:06:11.246Z,7.00
2023-01-10T10:08:40.994Z,6.45
2023-01-10T10:11:23.590Z,7.28
2023-01-10T10:14:02.966Z,7.57
2023-01-10T10:16:49.603Z,6.40
2023-01-10T10:19:40.963Z,6.15
2023-01-10T10:22:34.952Z,6.60
2023-01-10T10:25:42.815Z,5.60
2023-01-10T10:28:15.037Z,5.78
2023-01-10T10:30:47.514Z,6.32
2023-01-10T10:33:14.042Z,6.47
2023-01-10T10:35:49.750Z,6.45
2023-01-10T10:38:30.072Z,6.70
2023-01-10T10:41:00.007Z,6.68
2023-01-10T10:43:37.991Z,5.68
2023-01-10T10:46:13.277Z,6.80
2023-01-10T10:49:17.271Z,6.88
2023-01-10T10:51:52.175Z,7.00
2023-01-10T10:54:19.166Z,6.78
2023-01-10T10:56:45.995Z,7.30
2023-01-10T10:59:18.865Z,6.90
2023-01-10T11:01:49.849Z,8.10
2023-01-10T11:04:21.165Z,6.57
2023-01-10T11:06:50.886Z,7.45
2023-01-10T11:09:25.591Z,8.52
2023-01-10T11:11:54.303Z,6.15
2023-01-10T11:14:48.922Z,8.25
2023-01-10T11:17:29.131Z,7.40
2023-01-10T11:20:02.022Z,7.30
2023-01-10T11:25:01.213Z,6.07
2023-01-10T11:27:49.918Z,7.00
2023-01-10T11:30:23.702Z,6.93
2023-01-10T11:32:57.004Z,6.38
2023-01-10T11:35:28.520Z,6.90
2023-01-10T11:38:04.423Z,6.85
2023-01-10T11:40:37.855Z,6.38
2023-01-10T11:43:26.294Z,6.57
2023-01-10T11:46:02.607Z,6.22
2023-01-10T11:49:04.354Z,6.40
2023-01-10T11:51:39.608Z,6.40
2023-01-10T11:54:16.330Z,5.85
2023-01-10T11:57:00.727Z,5.20
2023-01-10T11:59:29.089Z,5.78
2023-01-10T12:02:23.389Z,4.72
2023-01-10T12:04:52.699Z,5.43
2023-01-10T12:07:19.400Z,5.00
2023-01-10T12:09:56.556Z,5.95
2023-01-10T12:12:35.254Z,5.35
2023-01-10T12:15:29.686Z,5.88
2023-01-10T12:17:59.380Z,5.60
2023-01-10T12:20:32.414Z,5.07
2023-01-10T12:25:27.528Z,5.47
2023-01-10T12:27:57.713Z,6.35
2023-01-10T12:30:36.637Z,5.35
2023-01-10T12:35:56.868Z,6.68
2023-01-10T12:44:16.441Z,7.13
2023-01-10T12:47:10.605Z,7.80
2023-01-10T12:53:00.793Z,8.40
2023-01-10T12:55:36.764Z,8.65
2023-01-10T12:58:05.280Z,7.70
2023-01-10T13:00:48.220Z,7.90
2023-01-10T13:03:25.555Z,8.05
2023-01-10T13:05:53.129Z,8.30
2023-01-10T13:08:22.449Z,8.48
2023-01-10T13:10:53.157Z,7.65
2023-01-10T13:13:28.760Z,7.95
2023-01-10T13:16:14.175Z,7.68
2023-01-10T13:19:00.996Z,8.73
2023-01-10T13:21:28.282Z,8.07
2023-01-10T13:24:00.671Z,9.60
2023-01-10T13:26:27.639Z,8.52
2023-01-10T13:28:57.269Z,8.43
2023-01-10T13:31:31.681Z,7.82
2023-01-10T13:34:11.866Z,8.20
2023-01-10T13:36:43.943Z,7.78
2023-01-10T13:39:30.638Z,8.57
2023-01-10T13:42:15.721Z,6.43
2023-01-10T13:45:00.280Z,8.13
2023-01-10T13:47:39.078Z,6.53
2023-01-10T13:50:23.685Z,6.85
2023-01-10T13:52:53.664Z,6.50
2023-01-10T13:55:24.609Z,6.05
2023-01-10T13:57:55.649Z,6.38
2023-01-10T14:00:52.921Z,5.80
2023-01-10T14:03:47.938Z,5.38
2023-01-10T14:06:21.299Z,5.00
2023-01-10T14:08:53.957Z,5.90
2023-01-10T14:11:23.612Z,5.63
2023-01-10T14:13:58.058Z,5.00
2023-01-10T14:19:23.783Z,5.03
2023-01-10T14:21:55.088Z,5.30
2023-01-10T14:24:28.372Z,5.13
2023-01-10T14:26:58.448Z,4.78
2023-01-10T14:29:30.730Z,4.55
2023-01-10T14:31:59.187Z,3.67
2023-01-10T14:34:28.844Z,4.13
2023-01-10T14:37:00.875Z,4.47
2023-01-10T14:39:29.333Z,4.65
2023-01-10T14:42:02.378Z,3.95
2023-01-10T14:47:04.634Z,3.53
2023-01-10T14:49:35.397Z,3.75
2023-01-10T14:52:23.952Z,4.85
2023-01-10T14:55:11.434Z,3.92
2023-01-10T14:57:38.291Z,4.00
2023-01-10T15:00:17.940Z,4.32
2023-01-10T15:02:46.323Z,4.45
2023-01-10T15:05:20.202Z,5.30
2023-01-10T15:07:46.846Z,4.72
2023-01-10T15:10:44.108Z,3.33
2023-01-10T15:13:16.110Z,3.97
2023-01-10T15:15:45.681Z,4.45
2023-01-10T15:18:43.386Z,5.03
2023-01-10T15:21:13.474Z,4.60
2023-01-10T15:23:42.742Z,4.60
2023-01-10T15:26:21.418Z,4.40
2023-01-10T15:29:06.868Z,3.92
2023-01-10T15:31:37.973Z,5.15
2023-01-10T15:34:08.842Z,4.00
2023-01-10T15:36:35.541Z,4.22
2023-01-10T15:39:02.332Z,3.97
2023-01-10T15:41:31.121Z,4.40
2023-01-10T15:44:23.996Z,3.58
2023-01-10T15:46:55.880Z,4.20
2023-01-10T15:49:25.294Z,4.72
2023-01-10T15:51:52.369Z,3.90
2023-01-10T15:54:18.920Z,3.65
2023-01-10T15:56:53.788Z,3.80
2023-01-10T15:59:25.433Z,3.50
2023-01-10T16:01:59.824Z,3.63
2023-01-10T16:04:26.844Z,3.67
2023-01-10T16:07:05.719Z,3.90
2023-01-10T16:09:32.499Z,3.45
2023-01-10T16:12:17.861Z,3.67
2023-01-10T16:14:44.333Z,3.47
2023-01-10T16:17:12.467Z,3.92
2023-01-10T16:19:39.007Z,3.38
2023-01-10T16:22:05.756Z,4.10
2023-01-10T16:24:35.980Z,3.88
2023-01-10T16:27:06.403Z,3.00
2023-01-10T16:29:33.700Z,3.20
2023-01-10T16:32:00.231Z,2.95
2023-01-10T16:34:26.798Z,3.05
2023-01-10T16:36:53.409Z,2.42
2023-01-10T16:39:22.420Z,3.45
2023-01-10T16:42:07.912Z,3.25
2023-01-10T16:44:35.119Z,3.53
2023-01-10T16:47:04.904Z,2.65
2023-01-10T16:49:33.029Z,3.70
2023-01-10T16:51:59.561Z,3.35
2023-01-10T16:54:26.103Z,2.67
2023-01-10T16:56:52.758Z,3.58
2023-01-10T16:59:20.464Z,3.42
2023-01-10T17:01:51.311Z,3.17
2023-01-10T17:04:24.198Z,3.28
2023-01-10T17:06:50.943Z,2.78
2023-01-10T17:09:23.747Z,2.38
2023-01-10T17:11:56.687Z,3.70
2023-01-10T17:16:50.103Z,2.80
2023-01-10T17:19:16.762Z,3.38
2023-01-10T17:21:43.273Z,3.55
2023-01-10T17:24:11.198Z,3.40
2023-01-10T17:26:37.887Z,3.30
2023-01-10T17:29:04.379Z,2.97
2023-01-10T17:31:31.051Z,3.22
2023-01-10T17:33:57.542Z,3.53
2023-01-10T17:36:29.105Z,3.85
2023-01-10T17:38:59.552Z,2.67
2023-01-10T17:41:26.024Z,2.88
2023-01-10T17:43:52.511Z,2.97
2023-01-10T17:46:19.034Z,3.33
2023-01-10T17:48:45.434Z,2.35
2023-01-10T17:51:13.207Z,3.85
2023-01-10T17:53:40.628Z,2.80
2023-01-10T17:56:07.794Z,3.50
2023-01-10T17:58:34.376Z,3.65
2023-01-10T18:01:01.031Z,3.50
2023-01-10T18:03:27.895Z,3.95
2023-01-10T18:05:56.917Z,3.22
2023-01-10T18:08:24.356Z,2.78
2023-01-10T18:10:51.206Z,3.53
2023-01-10T18:13:20.414Z,3.40
2023-01-10T18:15:49.653Z,3.65
2023-01-10T18:18:16.765Z,3.28
2023-01-10T18:20:44.225Z,2.60
2023-01-10T18:23:21.239Z,2.70
2023-01-10T18:25:51.874Z,3.53
2023-01-10T18:28:21.496Z,3.25
2023-01-10T18:30:50.447Z,2.83
2023-01-10T18:33:16.961Z,3.15
2023-01-10T18:35:44.967Z,3.00
2023-01-10T18:38:12.796Z,4.05
2023-01-10T18:40:41.243Z,2.95
2023-01-10T18:43:14.123Z,3.10
2023-01-10T18:45:42.773Z,2.83
2023-01-10T18:48:09.953Z,3.10
2023-01-10T18:50:36.513Z,2.92
2023-01-10T18:53:04.351Z,2.95
2023-01-10T18:55:30.899Z,3.17
2023-01-10T18:57:57.653Z,3.08
2023-01-10T19:00:24.422Z,3.15
2023-01-10T19:02:51.120Z,3.03
2023-01-10T19:05:17.817Z,3.50
2023-01-10T19:07:44.383Z,3.08
2023-01-10T19:10:11.112Z,2.90
2023-01-10T19:12:56.412Z,4.10
2023-01-10T19:15:22.883Z,3.30
2023-01-10T19:17:49.305Z,3.55
2023-01-10T19:20:16.143Z,2.83
2023-01-10T19:22:42.615Z,3.08
2023-01-10T19:25:09.640Z,3.08
2023-01-10T19:27:36.248Z,3.58
2023-01-10T19:30:03.133Z,2.88
2023-01-10T19:32:29.632Z,3.75
2023-01-10T19:34:56.165Z,3.30
2023-01-10T19:37:22.574Z,3.58
2023-01-10T19:39:49.102Z,3.45
2023-01-10T19:42:15.641Z,3.20
2023-01-10T19:44:42.936Z,3.10
2023-01-10T19:47:14.740Z,2.97
2023-01-10T19:49:41.566Z,3.65
2023-01-10T19:52:08.728Z,3.67
2023-01-10T19:54:36.604Z,3.25
2023-01-10T19:57:03.487Z,3.47
2023-01-10T19:59:32.465Z,3.50
2023-01-10T20:02:00.877Z,3.63
2023-01-10T20:04:27.540Z,3.83
2023-01-10T20:06:54.098Z,2.70
2023-01-10T20:09:20.669Z,3.15
2023-01-10T20:11:47.189Z,3.33
2023-01-10T20:14:18.927Z,2.78
2023-01-10T20:16:45.718Z,3.67
2023-01-10T20:19:12.382Z,2.90
2023-01-10T20:21:40.619Z,3.03
2023-01-10T20:24:19.168Z,2.97
2023-01-10T20:26:48.077Z,2.78
2023-01-10T20:29:15.584Z,3.25
2023-01-10T20:31:48.089Z,2.78
2023-01-10T20:34:14.829Z,3.03
2023-01-10T20:36:41.374Z,3.10
2023-01-10T20:39:08.104Z,2.80
2023-01-10T20:41:34.787Z,3.80
2023-01-10T20:44:01.386Z,2.65
2023-01-10T20:46:31.703Z,2.03
2023-01-10T20:49:02.191Z,2.80
2023-01-10T20:51:35.072Z,2.80
2023-01-10T20:54:02.585Z,2.45
2023-01-10T20:56:31.842Z,2.40
2023-01-10T20:58:58.872Z,2.10
2023-01-10T21:01:34.028Z,2.13
2023-01-10T21:04:02.600Z,2.38
2023-01-10T21:06:29.306Z,2.17
2023-01-10T21:08:56.224Z,2.42
2023-01-10T21:11:22.755Z,2.20
2023-01-10T21:13:49.444Z,2.22
2023-01-10T21:16:19.480Z,2.10
2023-01-10T21:18:46.770Z,2.22
2023-01-10T21:21:15.398Z,2.13
2023-01-10T21:23:42.409Z,2.33
2023-01-10T21:26:12.032Z,2.20
2023-01-10T21:28:46.578Z,2.10
2023-01-10T21:31:21.168Z,2.45
2023-01-10T21:33:49.235Z,2.55
2023-01-10T21:36:16.077Z,2.00
2023-01-10T21:38:42.598Z,1.88
2023-01-10T21:41:35.690Z,2.00
2023-01-10T21:44:04.061Z,1.83
2023-01-10T21:46:30.606Z,2.00
2023-01-10T21:48:57.090Z,1.63
2023-01-10T21:51:23.630Z,2.03
2023-01-10T21:53:50.252Z,2.17
2023-01-10T21:56:16.735Z,2.33
2023-01-10T21:58:43.406Z,2.42
2023-01-10T22:01:10.034Z,2.05
2023-01-10T22:03:36.598Z,2.10
2023-01-10T22:06:03.181Z,2.13
2023-01-10T22:08:29.591Z,2.20
2023-01-10T22:10:56.201Z,2.22
2023-01-10T22:13:26.075Z,2.35
2023-01-10T22:16:02.042Z,2.85
2023-01-10T22:18:30.697Z,2.30
2023-01-10T22:20:58.458Z,2.95
2023-01-10T22:23:25.125Z,2.50
2023-01-10T22:26:08.106Z,2.35
2023-01-10T22:28:35.000Z,2.70
2023-01-10T22:31:02.286Z,2.60
2023-01-10T22:33:34.308Z,2.70
2023-01-10T22:36:04.916Z,2.75
2023-01-10T22:38:32.820Z,2.42
2023-01-10T22:41:13.588Z,2.80
2023-01-10T22:43:40.185Z,2.90
2023-01-10T22:46:07.496Z,2.78
2023-01-10T22:48:38.218Z,2.50
2023-01-10T22:51:05.694Z,2.40
2023-01-10T22:53:32.853Z,2.38
2023-01-10T22:56:00.727Z,2.25
2023-01-10T22:58:27.730Z,2.47
2023-01-10T23:00:54.266Z,2.08
2023-01-10T23:03:20.850Z,2.10
2023-01-10T23:05:47.315Z,2.42
2023-01-10T23:08:14.092Z,2.38
2023-01-10T23:10:40.715Z,2.03
2023-01-10T23:13:08.910Z,2.28
2023-01-10T23:15:35.644Z,2.33
2023-01-10T23:18:02.149Z,2.22
2023-01-10T23:20:28.707Z,2.30
2023-01-10T23:22:55.204Z,2.38
2023-01-10T23:25:21.702Z,2.50
2023-01-10T23:27:48.266Z,2.50
2023-01-10T23:30:15.158Z,2.40
2023-01-10T23:32:41.891Z,2.38
2023-01-10T23:35:09.050Z,2.72
2023-01-10T23:37:35.562Z,2.20
2023-01-10T23:40:02.090Z,2.10
2023-01-10T23:42:28.526Z,2.58
2023-01-10T23:44:55.062Z,2.50
2023-01-10T23:47:21.531Z,2.30
2023-01-10T23:49:48.007Z,2.00
2023-01-10T23:52:14.908Z,2.60
2023-01-10T23:54:41.517Z,2.22
2023-01-10T23:57:08.058Z,2.42
2023-01-10T23:59:34.539Z,2.25
